Canton, Massachusetts
Current Conditions -  °F | °C
As of 8:46 AM on Friday 28 Nov 2014 (Local Time) from KOWD Reporting Station
Overcast Overcast  
Wind Chill: 22°   Ceiling: 1600
Heat Index: 30°   Visibility: 10mi
Dew Point: 25°   Wind: 8mph
Humidity: 82%   Direction: 330°NNW
Pressure: 30.06"   Gusts: NA
Location:  42.16°N, 71.14°W
Report Text: KOWD 281346Z 33007KT 10SM BKN016 BKN048 OVC075 M01/M04 A3006 RMK AO2 SNE05 P0000 T10111039
Loading
Personal Weather Stations






























Interactive Weather Map New forecast layout! Learn more

10-Day Weather Forecast

Advertisements
Track Severe Weather on mobile